createdAt,value
2022-09-01T00:00:07.998Z,0.83
2022-09-01T00:02:37.669Z,1.03
2022-09-01T00:05:08.052Z,1.20
2022-09-01T00:07:37.193Z,1.10
2022-09-01T00:10:08.926Z,1.10
2022-09-01T00:12:38.675Z,1.10
2022-09-01T00:15:12.023Z,1.20
2022-09-01T00:17:41.073Z,1.30
2022-09-01T00:20:11.361Z,1.20
2022-09-01T00:22:40.835Z,1.20
2022-09-01T00:25:10.670Z,1.40
2022-09-01T00:27:39.751Z,1.30
2022-09-01T00:30:11.795Z,0.97
2022-09-01T00:32:40.931Z,0.93
2022-09-01T00:35:10.664Z,1.10
2022-09-01T00:37:39.725Z,1.10
2022-09-01T00:40:11.591Z,1.30
2022-09-01T00:42:41.322Z,1.10
2022-09-01T00:45:13.378Z,1.20
2022-09-01T00:47:42.842Z,1.07
2022-09-01T00:50:13.596Z,0.93
2022-09-01T00:52:46.982Z,1.13
2022-09-01T00:55:19.862Z,1.23
2022-09-01T00:57:50.268Z,1.47
2022-09-01T01:00:23.422Z,1.40
2022-09-01T01:02:55.858Z,1.20
2022-09-01T01:05:27.836Z,1.40
2022-09-01T01:07:57.919Z,0.97
2022-09-01T01:10:29.614Z,1.10
2022-09-01T01:13:01.941Z,1.10
2022-09-01T01:15:32.624Z,1.13
2022-09-01T01:18:01.955Z,1.40
2022-09-01T01:20:51.998Z,1.20
2022-09-01T01:23:29.701Z,1.40
2022-09-01T01:26:01.732Z,0.97
2022-09-01T01:28:33.713Z,1.57
2022-09-01T01:31:11.943Z,1.50
2022-09-01T01:33:44.505Z,1.27
2022-09-01T01:36:17.887Z,1.20
2022-09-01T01:38:50.293Z,0.90
2022-09-01T01:41:21.942Z,1.10
2022-09-01T01:43:51.042Z,1.20
2022-09-01T01:46:21.301Z,1.70
2022-09-01T01:48:53.738Z,1.60
2022-09-01T01:51:26.773Z,1.20
2022-09-01T01:53:56.948Z,1.57
2022-09-01T01:56:28.007Z,1.50
2022-09-01T01:58:58.878Z,1.27
2022-09-01T02:01:32.081Z,1.67
2022-09-01T02:04:04.323Z,1.40
2022-09-01T02:06:36.905Z,1.50
2022-09-01T02:09:07.201Z,1.97
2022-09-01T02:11:37.998Z,1.30
2022-09-01T02:14:09.409Z,1.80
2022-09-01T02:16:39.038Z,1.57
2022-09-01T02:19:12.228Z,1.17
2022-09-01T02:21:44.534Z,1.30
2022-09-01T02:24:13.611Z,2.10
2022-09-01T02:26:48.903Z,1.97
2022-09-01T02:29:23.830Z,1.77
2022-09-01T02:31:54.603Z,1.73
2022-09-01T02:34:25.866Z,1.80
2022-09-01T02:36:58.176Z,2.07
2022-09-01T02:39:30.185Z,2.00
2022-09-01T02:42:01.390Z,2.10
2022-09-01T02:44:32.629Z,1.70
2022-09-01T02:47:05.554Z,1.60
2022-09-01T02:49:36.018Z,2.40
2022-09-01T02:52:06.266Z,2.17
2022-09-01T02:54:36.271Z,2.50
2022-09-01T02:57:09.027Z,1.90
2022-09-01T02:59:43.154Z,2.13
2022-09-01T03:02:12.910Z,1.60
2022-09-01T03:04:42.047Z,2.30
2022-09-01T03:07:13.745Z,2.20
2022-09-01T03:09:43.681Z,2.20
2022-09-01T03:12:14.076Z,2.00
2022-09-01T03:14:43.309Z,2.30
2022-09-01T03:17:13.993Z,2.70
2022-09-01T03:19:45.161Z,2.37
2022-09-01T03:22:14.385Z,2.10
2022-09-01T03:24:43.987Z,2.10
2022-09-01T03:27:14.622Z,1.90
2022-09-01T03:29:43.928Z,1.70
2022-09-01T03:32:13.042Z,5.77
2022-09-01T03:34:42.415Z,9.17
2022-09-01T03:37:12.196Z,3.20
2022-09-01T03:39:41.433Z,3.20
2022-09-01T03:42:12.681Z,2.40
2022-09-01T03:44:45.279Z,2.07
2022-09-01T03:47:17.009Z,2.13
2022-09-01T03:49:49.552Z,1.90
2022-09-01T03:52:19.033Z,2.00
2022-09-01T03:54:53.273Z,2.40
2022-09-01T03:57:23.237Z,2.30
2022-09-01T03:59:55.199Z,2.83
2022-09-01T04:02:29.467Z,2.07
2022-09-01T04:05:00.569Z,2.33
2022-09-01T04:07:30.667Z,2.60
2022-09-01T04:09:59.661Z,2.80
2022-09-01T04:12:29.884Z,2.30
2022-09-01T04:15:01.814Z,3.07
2022-09-01T04:17:48.761Z,3.40
2022-09-01T04:20:20.239Z,2.57
2022-09-01T04:22:52.610Z,2.97
2022-09-01T04:25:23.229Z,2.70
2022-09-01T04:27:55.404Z,2.77
2022-09-01T04:30:32.406Z,2.67
2022-09-01T04:33:02.078Z,2.87
2022-09-01T04:35:32.606Z,3.07
2022-09-01T04:38:08.366Z,2.83
2022-09-01T04:40:40.282Z,2.57
2022-09-01T04:43:09.959Z,3.17
2022-09-01T04:45:40.909Z,2.57
2022-09-01T04:48:10.973Z,2.83
2022-09-01T04:50:42.073Z,2.50
2022-09-01T04:53:20.293Z,2.83
2022-09-01T04:55:55.194Z,2.50
2022-09-01T04:58:28.958Z,2.60
2022-09-01T05:01:00.411Z,2.73
2022-09-01T05:03:31.953Z,3.10
2022-09-01T05:06:18.350Z,2.53
2022-09-01T05:09:00.360Z,2.93
2022-09-01T05:11:45.508Z,3.40
2022-09-01T05:14:25.942Z,3.10
2022-09-01T05:16:59.464Z,3.00
2022-09-01T05:19:30.842Z,2.53
2022-09-01T05:22:02.239Z,2.77
2022-09-01T05:24:38.538Z,3.03
2022-09-01T05:27:12.330Z,2.47
2022-09-01T05:29:45.790Z,2.50
2022-09-01T05:32:17.920Z,2.60
2022-09-01T05:34:47.789Z,2.60
2022-09-01T05:37:18.340Z,2.33
2022-09-01T05:39:49.148Z,2.50
2022-09-01T05:42:19.502Z,3.10
2022-09-01T05:44:52.698Z,3.37
2022-09-01T05:47:26.908Z,2.93
2022-09-01T05:49:58.847Z,3.27
2022-09-01T05:52:35.572Z,2.90
2022-09-01T05:55:09.008Z,3.00
2022-09-01T05:57:42.188Z,2.50
2022-09-01T06:00:13.226Z,2.47
2022-09-01T06:02:45.083Z,2.63
2022-09-01T06:05:19.891Z,2.80
2022-09-01T06:07:51.005Z,2.40
2022-09-01T06:10:20.328Z,2.33
2022-09-01T06:12:50.486Z,2.20
2022-09-01T06:15:24.807Z,2.30
2022-09-01T06:17:57.723Z,1.33
2022-09-01T06:20:27.536Z,1.53
2022-09-01T06:22:56.615Z,0.90
2022-09-01T06:25:30.539Z,0.80
2022-09-01T06:28:00.872Z,0.90
2022-09-01T06:30:30.227Z,1.00
2022-09-01T06:33:09.389Z,0.70
2022-09-01T06:35:40.490Z,0.98
2022-09-01T06:38:10.414Z,1.00
2022-09-01T06:40:42.950Z,1.00
2022-09-01T06:43:16.602Z,1.02
2022-09-01T06:45:54.391Z,0.77
2022-09-01T06:48:26.946Z,1.00
2022-09-01T06:51:18.368Z,0.97
2022-09-01T06:53:53.161Z,1.55
2022-09-01T06:56:24.136Z,1.13
2022-09-01T06:58:55.174Z,1.20
2022-09-01T07:01:27.492Z,1.10
2022-09-01T07:03:59.493Z,1.20
2022-09-01T07:06:59.363Z,0.80
2022-09-01T07:09:47.619Z,0.45
2022-09-01T07:12:31.944Z,0.50
2022-09-01T07:17:52.521Z,0.70
2022-09-01T07:21:36.133Z,0.55
2022-09-01T07:23:18.035Z,0.52
2022-09-01T07:26:01.044Z,0.50
2022-09-01T07:28:42.478Z,0.50
2022-09-01T07:39:55.679Z,0.60
2022-09-01T07:45:59.195Z,0.60
2022-09-01T07:49:02.613Z,0.47
2022-09-01T07:51:38.095Z,0.32
2022-09-01T07:54:13.764Z,0.50
2022-09-01T07:56:43.177Z,0.40
2022-09-01T07:59:15.578Z,0.40
2022-09-01T08:02:11.270Z,0.35
2022-09-01T08:04:40.898Z,0.30
2022-09-01T08:07:18.733Z,0.30
2022-09-01T08:09:49.409Z,0.30
2022-09-01T08:12:18.607Z,0.25
2022-09-01T08:15:12.715Z,0.40
2022-09-01T08:17:51.608Z,0.32
2022-09-01T08:20:21.142Z,0.47
2022-09-01T08:23:03.446Z,0.30
2022-09-01T08:25:38.065Z,0.50
2022-09-01T08:28:08.039Z,0.40
2022-09-01T08:30:39.428Z,0.60
2022-09-01T08:33:11.728Z,0.45
2022-09-01T08:35:48.714Z,0.35
2022-09-01T08:38:19.815Z,0.50
2022-09-01T08:40:57.332Z,0.50
2022-09-01T08:43:51.534Z,0.22
2022-09-01T08:46:27.121Z,0.40
2022-09-01T08:52:15.338Z,0.20
2022-09-01T08:54:49.804Z,0.20
2022-09-01T08:57:24.506Z,0.43
2022-09-01T09:00:33.378Z,0.40
2022-09-01T09:03:20.466Z,0.30
2022-09-01T09:06:08.612Z,0.22
2022-09-01T09:08:53.422Z,0.30
2022-09-01T09:11:51.450Z,0.20
2022-09-01T09:14:34.944Z,0.45
2022-09-01T09:17:04.889Z,0.25
2022-09-01T09:19:36.483Z,0.30
2022-09-01T09:22:11.369Z,0.17
2022-09-01T09:24:50.573Z,0.47
2022-09-01T09:27:22.913Z,0.20
2022-09-01T09:29:56.596Z,0.28
2022-09-01T09:33:11.696Z,0.28
2022-09-01T09:35:37.219Z,0.20
2022-09-01T09:38:28.574Z,0.20
2022-09-01T09:43:58.738Z,0.45
2022-09-01T09:46:37.073Z,0.30
2022-09-01T09:49:19.276Z,0.20
2022-09-01T09:51:58.777Z,0.30
2022-09-01T09:54:30.926Z,0.35
2022-09-01T09:57:13.406Z,0.28
2022-09-01T09:59:58.722Z,0.28
2022-09-01T10:02:34.500Z,0.40
2022-09-01T10:05:24.713Z,0.32
2022-09-01T10:07:54.329Z,0.30
2022-09-01T10:10:37.630Z,0.40
2022-09-01T10:13:11.194Z,0.25
2022-09-01T10:15:42.323Z,0.88
2022-09-01T10:18:28.719Z,0.45
2022-09-01T10:21:01.898Z,0.22
2022-09-01T10:23:34.685Z,0.35
2022-09-01T10:26:09.538Z,0.30
2022-09-01T10:28:49.982Z,0.20
2022-09-01T10:31:21.361Z,0.30
2022-09-01T10:33:52.484Z,0.28
2022-09-01T10:36:24.644Z,0.20
2022-09-01T10:39:00.013Z,0.30
2022-09-01T10:41:53.256Z,0.40
2022-09-01T10:44:34.244Z,0.35
2022-09-01T10:47:13.540Z,0.30
2022-09-01T10:53:01.706Z,0.38
2022-09-01T10:55:38.566Z,0.30
2022-09-01T11:02:27.006Z,0.40
2022-09-01T11:05:16.120Z,0.25
2022-09-01T11:08:03.140Z,0.30
2022-09-01T11:10:50.782Z,0.30
2022-09-01T11:13:47.595Z,0.30
2022-09-01T11:16:50.506Z,0.28
2022-09-01T11:19:33.794Z,0.30
2022-09-01T11:22:26.495Z,0.25
2022-09-01T11:25:40.764Z,0.32
2022-09-01T11:28:45.635Z,0.30
2022-09-01T11:31:30.922Z,0.52
2022-09-01T11:34:23.263Z,0.50
2022-09-01T11:37:01.262Z,0.20
2022-09-01T11:39:34.822Z,0.25
2022-09-01T11:42:12.094Z,0.30
2022-09-01T11:44:46.021Z,0.30
2022-09-01T11:47:20.785Z,0.30
2022-09-01T11:49:53.629Z,0.43
2022-09-01T11:52:25.818Z,0.30
2022-09-01T11:54:55.711Z,0.65
2022-09-01T11:57:28.676Z,0.20
2022-09-01T11:59:59.655Z,0.40
2022-09-01T12:02:33.695Z,0.60
2022-09-01T12:05:27.570Z,0.50
2022-09-01T12:07:57.443Z,0.38
2022-09-01T12:10:33.627Z,0.35
2022-09-01T12:13:05.392Z,0.30
2022-09-01T12:15:40.992Z,0.40
2022-09-01T12:18:22.373Z,0.60
2022-09-01T12:20:53.578Z,0.30
2022-09-01T12:23:27.163Z,0.40
2022-09-01T12:25:58.169Z,0.30
2022-09-01T12:28:31.295Z,0.40
2022-09-01T12:31:03.994Z,0.50
2022-09-01T12:33:38.776Z,0.28
2022-09-01T12:36:22.243Z,0.25
2022-09-01T12:38:52.312Z,0.30
2022-09-01T12:41:42.125Z,0.25
2022-09-01T12:44:32.001Z,0.30
2022-09-01T12:47:03.672Z,0.20
2022-09-01T12:49:50.268Z,0.40
2022-09-01T12:52:25.826Z,0.30
2022-09-01T12:55:10.936Z,0.40
2022-09-01T12:57:45.439Z,0.30
2022-09-01T13:00:20.355Z,0.50
2022-09-01T13:02:51.977Z,0.30
2022-09-01T13:05:31.190Z,0.20
2022-09-01T13:08:03.118Z,0.25
2022-09-01T13:10:36.975Z,0.20
2022-09-01T13:13:07.127Z,0.20
2022-09-01T13:15:38.030Z,0.50
2022-09-01T13:18:07.114Z,0.40
2022-09-01T13:20:37.776Z,0.30
2022-09-01T13:23:06.826Z,0.22
2022-09-01T13:25:36.698Z,0.25
2022-09-01T13:28:07.539Z,0.20
2022-09-01T13:30:36.862Z,0.20
2022-09-01T13:33:23.073Z,0.30
2022-09-01T13:35:54.783Z,0.30
2022-09-01T13:38:24.320Z,0.57
2022-09-01T13:40:53.574Z,0.40
2022-09-01T13:43:27.145Z,0.40
2022-09-01T13:45:56.562Z,0.68
2022-09-01T13:49:02.133Z,0.47
2022-09-01T13:51:27.143Z,0.43
2022-09-01T13:53:56.474Z,0.40
2022-09-01T13:56:25.672Z,0.50
2022-09-01T13:58:55.020Z,0.60
2022-09-01T14:01:24.123Z,0.40
2022-09-01T14:03:56.065Z,0.40
2022-09-01T14:06:30.182Z,0.47
2022-09-01T14:08:59.401Z,0.40
2022-09-01T14:11:29.658Z,0.28
2022-09-01T14:13:59.007Z,0.40
2022-09-01T14:16:28.096Z,0.35
2022-09-01T14:18:57.237Z,0.40
2022-09-01T14:21:27.004Z,0.50
2022-09-01T14:23:58.135Z,0.68
2022-09-01T14:26:27.391Z,0.30
2022-09-01T14:28:57.979Z,0.30
2022-09-01T14:31:26.992Z,0.45
2022-09-01T14:33:56.168Z,0.50
2022-09-01T14:36:27.493Z,0.60
2022-09-01T14:38:58.629Z,0.40
2022-09-01T14:41:28.394Z,0.30
2022-09-01T14:44:02.987Z,0.32
2022-09-01T14:46:34.296Z,0.32
2022-09-01T14:49:04.424Z,0.70
2022-09-01T14:54:26.949Z,0.50
2022-09-01T14:59:45.167Z,0.30
2022-09-01T15:02:14.434Z,0.30
2022-09-01T15:04:43.671Z,0.40
2022-09-01T15:07:13.471Z,0.35
2022-09-01T15:09:43.965Z,0.25
2022-09-01T15:12:13.199Z,0.40
2022-09-01T15:14:42.580Z,0.30
2022-09-01T15:17:11.871Z,0.65
2022-09-01T15:19:40.984Z,0.38
2022-09-01T15:22:12.876Z,0.30
2022-09-01T15:24:43.808Z,0.40
2022-09-01T15:27:12.975Z,0.38
2022-09-01T15:29:45.688Z,0.40
2022-09-01T15:32:27.383Z,0.20
2022-09-01T15:34:57.601Z,0.40
2022-09-01T15:37:27.055Z,0.43
2022-09-01T15:39:57.605Z,0.20
2022-09-01T15:42:27.147Z,0.32
2022-09-01T15:44:56.276Z,0.10
2022-09-01T15:47:26.411Z,0.30
2022-09-01T15:49:55.654Z,0.30
2022-09-01T15:52:24.768Z,0.50
2022-09-01T15:54:54.228Z,0.50
2022-09-01T15:57:24.753Z,0.68
2022-09-01T15:59:53.935Z,0.40
2022-09-01T16:02:27.752Z,0.40
2022-09-01T16:04:56.992Z,0.25
2022-09-01T16:07:26.514Z,0.40
2022-09-01T16:09:57.981Z,0.40
2022-09-01T16:12:28.850Z,0.17
2022-09-01T16:14:57.978Z,0.30
2022-09-01T16:17:38.920Z,0.20
2022-09-01T16:20:11.922Z,0.30
2022-09-01T16:22:45.987Z,0.40
2022-09-01T16:25:20.020Z,0.38
2022-09-01T16:27:51.489Z,0.30
2022-09-01T16:30:27.642Z,0.20
2022-09-01T16:33:00.986Z,0.30
2022-09-01T16:35:44.727Z,0.35
2022-09-01T16:38:27.227Z,0.40
2022-09-01T16:41:04.098Z,0.47
2022-09-01T16:43:43.279Z,0.40
2022-09-01T16:46:19.473Z,0.40
2022-09-01T16:49:00.529Z,0.40
2022-09-01T16:51:38.057Z,0.73
2022-09-01T16:54:17.530Z,0.40
2022-09-01T16:56:54.848Z,0.30
2022-09-01T16:59:35.573Z,0.38
2022-09-01T17:02:16.955Z,0.30
2022-09-01T17:04:49.824Z,0.45
2022-09-01T17:07:29.469Z,0.55
2022-09-01T17:10:04.883Z,0.52
2022-09-01T17:12:42.679Z,0.30
2022-09-01T17:15:18.180Z,0.47
2022-09-01T17:17:55.860Z,0.52
2022-09-01T17:20:28.788Z,0.38
2022-09-01T17:23:00.570Z,0.35
2022-09-01T17:25:32.883Z,0.68
2022-09-01T17:28:06.957Z,0.82
2022-09-01T17:30:45.925Z,0.30
2022-09-01T17:33:25.293Z,0.40
2022-09-01T17:36:10.382Z,0.38
2022-09-01T17:38:54.142Z,0.43
2022-09-01T17:41:36.373Z,0.40
2022-09-01T17:44:16.564Z,0.20
2022-09-01T17:46:54.001Z,0.40
2022-09-01T17:49:29.442Z,0.45
2022-09-01T17:52:09.935Z,0.45
2022-09-01T17:54:46.326Z,0.38
2022-09-01T17:57:24.714Z,0.47
2022-09-01T17:59:58.141Z,0.32
2022-09-01T18:03:02.366Z,0.40
2022-09-01T18:05:39.674Z,0.30
2022-09-01T18:08:30.630Z,0.40
2022-09-01T18:11:03.318Z,0.30
2022-09-01T18:13:56.471Z,0.52
2022-09-01T18:16:29.505Z,0.50
2022-09-01T18:19:05.515Z,0.40
2022-09-01T18:21:38.097Z,0.30
2022-09-01T18:24:16.556Z,0.30
2022-09-01T18:26:48.229Z,0.50
2022-09-01T18:29:18.163Z,0.40
2022-09-01T18:32:12.178Z,0.45
2022-09-01T18:35:07.975Z,0.40
2022-09-01T18:37:51.582Z,0.60
2022-09-01T18:40:27.819Z,0.30
2022-09-01T18:43:09.414Z,0.40
2022-09-01T18:45:50.904Z,0.40
2022-09-01T18:48:30.796Z,0.50
2022-09-01T18:51:08.117Z,0.60
2022-09-01T18:53:46.047Z,0.40
2022-09-01T18:56:38.568Z,0.40
2022-09-01T18:59:19.384Z,0.40
2022-09-01T19:01:55.392Z,0.50
2022-09-01T19:04:31.473Z,0.50
2022-09-01T19:07:09.951Z,0.50
2022-09-01T19:09:45.745Z,0.33
2022-09-01T19:12:24.732Z,0.40
2022-09-01T19:15:05.411Z,0.50
2022-09-01T19:18:02.445Z,0.40
2022-09-01T19:20:40.638Z,0.40
2022-09-01T19:23:18.115Z,0.33
2022-09-01T19:25:47.539Z,0.70
2022-09-01T19:28:25.313Z,0.60
2022-09-01T19:31:04.927Z,0.30
2022-09-01T19:33:40.792Z,0.50
2022-09-01T19:36:17.844Z,0.50
2022-09-01T19:38:48.316Z,0.33
2022-09-01T19:41:25.257Z,0.60
2022-09-01T19:44:05.523Z,0.53
2022-09-01T19:46:42.187Z,0.50
2022-09-01T19:49:22.316Z,0.50
2022-09-01T19:51:59.643Z,0.37
2022-09-01T19:54:39.501Z,0.50
2022-09-01T19:57:18.993Z,0.53
2022-09-01T19:59:56.754Z,0.50
2022-09-01T20:02:31.037Z,0.50
2022-09-01T20:05:08.631Z,0.50
2022-09-01T20:07:44.113Z,0.50
2022-09-01T20:10:25.633Z,0.57
2022-09-01T20:13:10.932Z,0.73
2022-09-01T20:15:52.218Z,0.40
2022-09-01T20:18:29.822Z,0.60
2022-09-01T20:21:03.818Z,0.60
2022-09-01T20:23:38.736Z,0.40
2022-09-01T20:26:19.068Z,0.60
2022-09-01T20:28:55.786Z,0.40
2022-09-01T20:31:28.894Z,0.50
2022-09-01T20:34:05.851Z,0.50
2022-09-01T20:36:42.338Z,0.60
2022-09-01T20:39:36.218Z,0.33
2022-09-01T20:42:10.844Z,0.57
2022-09-01T20:44:46.605Z,0.43
2022-09-01T20:47:15.921Z,0.60
2022-09-01T20:49:45.627Z,0.40
2022-09-01T20:52:25.346Z,0.50
2022-09-01T20:55:00.605Z,0.73
2022-09-01T20:57:44.772Z,0.50
2022-09-01T21:00:19.848Z,0.90
2022-09-01T21:02:59.824Z,0.80
2022-09-01T21:05:42.752Z,0.63
2022-09-01T21:08:28.354Z,0.50
2022-09-01T21:11:01.919Z,0.50
2022-09-01T21:13:50.043Z,0.63
2022-09-01T21:16:32.100Z,0.50
2022-09-01T21:19:10.164Z,0.60
2022-09-01T21:21:46.469Z,0.90
2022-09-01T21:24:15.691Z,0.90
2022-09-01T21:26:46.006Z,0.87
2022-09-01T21:29:28.808Z,0.70
2022-09-01T21:31:59.062Z,0.70
2022-09-01T21:34:28.390Z,0.60
2022-09-01T21:36:57.569Z,0.77
2022-09-01T21:39:26.878Z,0.90
2022-09-01T21:41:56.366Z,0.67
2022-09-01T21:44:27.170Z,0.73
2022-09-01T21:46:56.951Z,0.70
2022-09-01T21:49:26.171Z,0.60
2022-09-01T21:51:58.400Z,0.57
2022-09-01T21:54:27.797Z,0.67
2022-09-01T21:56:57.026Z,0.70
2022-09-01T21:59:27.797Z,0.70
2022-09-01T22:01:57.031Z,0.80
2022-09-01T22:04:26.529Z,0.83
2022-09-01T22:06:55.843Z,0.73
2022-09-01T22:09:24.941Z,0.73
2022-09-01T22:11:54.045Z,0.70
2022-09-01T22:14:23.758Z,0.80
2022-09-01T22:16:54.368Z,0.80
2022-09-01T22:19:23.551Z,0.73
2022-09-01T22:21:53.534Z,0.80
2022-09-01T22:24:22.551Z,0.60
2022-09-01T22:26:51.825Z,0.53
2022-09-01T22:29:20.923Z,0.90
2022-09-01T22:31:50.119Z,0.80
2022-09-01T22:34:20.581Z,0.67
2022-09-01T22:36:50.432Z,0.70
2022-09-01T22:39:22.354Z,0.90
2022-09-01T22:41:55.408Z,1.00
2022-09-01T22:44:24.781Z,1.23
2022-09-01T22:46:53.979Z,0.90
2022-09-01T22:49:24.611Z,1.00
2022-09-01T22:51:53.838Z,0.80
2022-09-01T22:54:23.308Z,1.00
2022-09-01T22:56:52.658Z,0.50
2022-09-01T22:59:25.633Z,0.50
2022-09-01T23:01:55.549Z,0.80
2022-09-01T23:04:26.248Z,0.80
2022-09-01T23:06:55.728Z,0.60
2022-09-01T23:09:24.909Z,0.70
2022-09-01T23:11:54.030Z,1.00
2022-09-01T23:14:23.105Z,0.70
2022-09-01T23:16:52.834Z,0.80
2022-09-01T23:19:23.216Z,0.80
2022-09-01T23:21:54.258Z,0.90
2022-09-01T23:24:23.458Z,0.70
2022-09-01T23:26:52.714Z,0.77
2022-09-01T23:29:21.882Z,0.83
2022-09-01T23:31:50.983Z,0.80
2022-09-01T23:34:20.649Z,0.87
2022-09-01T23:36:49.690Z,1.10
2022-09-01T23:39:20.360Z,0.60
2022-09-01T23:41:49.480Z,0.80
2022-09-01T23:44:18.638Z,1.00
2022-09-01T23:46:48.533Z,0.90
2022-09-01T23:49:19.795Z,0.80
2022-09-01T23:51:50.086Z,0.70
2022-09-01T23:54:20.713Z,0.80
2022-09-01T23:56:49.858Z,0.93
2022-09-01T23:59:22.888Z,0.87
